Current Weather

Heathrow

London, United Kingdom (EGLL)

Report from: Wednesday, May 29, 2024 8:20 AM BST
Current time: Wednesday, May 29, 2024 8:45 AM BST

Nearby weather – Weather history – Daily summaries
Weather forecast

Temperature15.0°C (59.0°F)
Dew point11.0°C (51.8°F)
Winds 12 kts (6.2 m/s, 13.8 mph) West (270°)
Visibility6.2 mi. (10 km)
Clouds Ceiling: Broken clouds 1,800 ft. (549 m)
Altimeter29.80 in.Hg (1009 mB)
Relative humidity77 %
Density altitude329 ft. (100 m)
Remarks Fully automated report
No significant changes expected in the next two hours
Flight conditions Marginal Visual Meteorological Conditions
Raw dataEGLL 290720Z AUTO 27012KT 9999 BKN018 15/11 Q1009 NOSIG
An error has occurred. This application may no longer respond until reloaded. Reload 🗙